createdAt,value
2018-03-11T00:02:05.966Z,18.70
2018-03-11T00:04:34.875Z,18.60
2018-03-11T00:07:04.744Z,18.87
2018-03-11T00:09:33.785Z,18.27
2018-03-11T00:12:03.994Z,21.90
2018-03-11T00:14:33.685Z,20.57
2018-03-11T00:17:03.142Z,19.13
2018-03-11T00:19:33.105Z,18.93
2018-03-11T00:22:03.263Z,19.40
2018-03-11T00:24:32.247Z,20.50
2018-03-11T00:27:02.218Z,20.87
2018-03-11T00:29:31.386Z,19.37
2018-03-11T00:32:00.891Z,19.97
2018-03-11T00:34:30.124Z,19.30
2018-03-11T00:37:00.384Z,19.90
2018-03-11T00:39:31.008Z,19.60
2018-03-11T00:42:01.184Z,22.60
2018-03-11T00:44:30.693Z,19.90
2018-03-11T00:47:00.705Z,18.23
2018-03-11T00:49:30.960Z,18.60
2018-03-11T00:52:00.852Z,22.83
2018-03-11T00:54:30.625Z,20.80
2018-03-11T00:56:59.895Z,19.47
2018-03-11T00:59:30.872Z,22.97
2018-03-11T01:01:59.995Z,20.03
2018-03-11T01:04:29.480Z,22.57
2018-03-11T01:06:59.349Z,23.27
2018-03-11T01:09:29.737Z,22.33
2018-03-11T01:11:59.548Z,21.13
2018-03-11T01:14:29.077Z,19.97
2018-03-11T01:17:00.104Z,24.87
2018-03-11T01:19:29.408Z,23.80
2018-03-11T01:21:58.280Z,22.23
2018-03-11T01:24:27.784Z,23.67
2018-03-11T01:26:58.158Z,23.10
2018-03-11T01:29:27.476Z,23.33
2018-03-11T01:31:57.727Z,23.93
2018-03-11T01:34:26.992Z,22.60
2018-03-11T01:36:56.672Z,26.33
2018-03-11T01:39:27.069Z,24.33
2018-03-11T01:41:57.010Z,22.67
2018-03-11T01:44:26.632Z,24.30
2018-03-11T01:46:56.414Z,22.30
2018-03-11T01:49:27.707Z,23.53
2018-03-11T01:51:56.406Z,22.90
2018-03-11T01:54:25.423Z,21.70
2018-03-11T01:56:54.510Z,21.33
2018-03-11T01:59:23.847Z,22.27
2018-03-11T02:01:53.943Z,24.23
2018-03-11T02:04:23.220Z,22.40
2018-03-11T02:06:52.472Z,21.70
2018-03-11T02:09:22.241Z,23.77
2018-03-11T02:11:52.275Z,21.13
2018-03-11T02:14:20.913Z,23.73
2018-03-11T02:16:49.613Z,21.63
2018-03-11T02:19:18.131Z,22.87
2018-03-11T02:21:48.096Z,23.10
2018-03-11T02:24:17.078Z,21.00
2018-03-11T02:26:46.083Z,21.17
2018-03-11T02:29:15.942Z,20.87
2018-03-11T02:31:44.757Z,25.00
2018-03-11T02:34:13.973Z,23.80
2018-03-11T02:36:42.678Z,25.53
2018-03-11T02:39:11.352Z,21.43
2018-03-11T02:41:40.089Z,24.03
2018-03-11T02:44:09.747Z,23.73
2018-03-11T02:46:38.720Z,23.93
2018-03-11T02:49:07.799Z,22.13
2018-03-11T02:51:37.498Z,22.07
2018-03-11T02:54:07.276Z,23.83
2018-03-11T02:56:36.151Z,23.17
2018-03-11T02:59:04.380Z,25.27
2018-03-11T03:01:33.531Z,22.83
2018-03-11T03:04:02.535Z,23.70
2018-03-11T03:06:31.052Z,27.60
2018-03-11T03:09:00.437Z,23.77
2018-03-11T03:11:29.994Z,25.03
2018-03-11T03:13:58.833Z,21.30
2018-03-11T03:16:27.901Z,23.97
2018-03-11T03:18:56.490Z,24.73
2018-03-11T03:21:24.899Z,23.40
2018-03-11T03:23:53.874Z,21.93
2018-03-11T03:26:22.267Z,23.70
2018-03-11T03:28:50.762Z,21.37
2018-03-11T03:31:20.485Z,20.13
2018-03-11T03:33:49.291Z,20.20
2018-03-11T03:36:19.186Z,24.10
2018-03-11T03:38:47.828Z,21.23
2018-03-11T03:41:16.465Z,23.10
2018-03-11T03:43:44.759Z,23.93
2018-03-11T03:46:13.521Z,25.30
2018-03-11T03:48:41.949Z,21.50
2018-03-11T03:51:10.611Z,22.87
2018-03-11T03:53:39.013Z,24.50
2018-03-11T03:56:08.819Z,21.23
2018-03-11T03:58:37.488Z,24.13
2018-03-11T04:01:06.296Z,26.17
2018-03-11T04:03:35.503Z,28.23
2018-03-11T04:06:04.117Z,30.07
2018-03-11T04:08:32.926Z,26.80
2018-03-11T04:11:01.540Z,27.73
2018-03-11T04:13:30.627Z,26.57
2018-03-11T04:15:59.301Z,29.20
2018-03-11T04:18:27.900Z,101.43
2018-03-11T04:20:56.297Z,104.33
2018-03-11T04:23:25.176Z,79.63
2018-03-11T04:25:53.987Z,49.43
2018-03-11T04:28:23.087Z,44.00
2018-03-11T04:30:51.961Z,55.63
2018-03-11T04:33:20.719Z,34.50
2018-03-11T04:35:49.256Z,50.77
2018-03-11T04:38:18.278Z,94.47
2018-03-11T04:40:47.233Z,31.57
2018-03-11T04:43:15.910Z,32.37
2018-03-11T04:45:45.070Z,34.33
2018-03-11T04:48:13.732Z,43.20
2018-03-11T04:50:42.231Z,25.03
2018-03-11T04:53:11.708Z,24.30
2018-03-11T04:55:41.045Z,24.03
2018-03-11T04:58:09.663Z,24.50
2018-03-11T05:00:38.859Z,24.17
2018-03-11T05:03:08.497Z,26.37
2018-03-11T05:05:37.434Z,28.07
2018-03-11T05:08:06.178Z,29.23
2018-03-11T05:10:35.418Z,26.97
2018-03-11T05:13:04.766Z,26.60
2018-03-11T05:15:34.143Z,23.70
2018-03-11T05:18:03.316Z,21.37
2018-03-11T05:20:31.886Z,23.57
2018-03-11T05:23:01.008Z,22.30
2018-03-11T05:25:30.084Z,23.47
2018-03-11T05:27:58.682Z,25.60
2018-03-11T05:30:28.067Z,25.00
2018-03-11T05:32:56.622Z,23.57
2018-03-11T05:35:25.026Z,26.40
2018-03-11T05:37:53.664Z,27.10
2018-03-11T05:40:24.876Z,27.60
2018-03-11T05:42:53.716Z,27.57
2018-03-11T05:45:22.406Z,27.03
2018-03-11T05:47:51.298Z,31.83
2018-03-11T05:50:19.965Z,24.57
2018-03-11T05:52:49.112Z,24.70
2018-03-11T05:55:18.085Z,26.37
2018-03-11T05:57:46.634Z,23.73
2018-03-11T06:00:16.061Z,23.93
2018-03-11T06:02:44.763Z,23.00
2018-03-11T06:05:13.486Z,24.80
2018-03-11T06:07:43.460Z,27.57
2018-03-11T06:10:12.401Z,27.73
2018-03-11T06:12:42.711Z,27.03
2018-03-11T06:15:11.948Z,30.97
2018-03-11T06:17:41.086Z,28.57
2018-03-11T06:20:11.113Z,34.20
2018-03-11T06:22:40.103Z,27.70
2018-03-11T06:25:09.455Z,24.73
2018-03-11T06:27:38.654Z,28.67
2018-03-11T06:30:07.064Z,22.80
2018-03-11T06:32:36.096Z,22.63
2018-03-11T06:35:05.034Z,22.23
2018-03-11T06:37:33.881Z,19.43
2018-03-11T06:40:03.046Z,16.20
2018-03-11T06:42:32.049Z,15.40
2018-03-11T06:45:00.797Z,11.17
2018-03-11T06:47:29.953Z,9.73
2018-03-11T06:49:59.571Z,11.93
2018-03-11T06:52:29.535Z,12.03
2018-03-11T06:54:58.453Z,11.53
2018-03-11T06:57:27.009Z,10.90
2018-03-11T06:59:57.224Z,13.10
2018-03-11T07:02:26.965Z,15.00
2018-03-11T07:04:57.124Z,15.27
2018-03-11T07:07:26.520Z,12.57
2018-03-11T07:09:56.521Z,14.07
2018-03-11T07:12:26.085Z,16.93
2018-03-11T07:14:56.191Z,18.33
2018-03-11T07:17:25.830Z,16.93
2018-03-11T07:19:55.343Z,20.40
2018-03-11T07:22:25.668Z,19.43
2018-03-11T07:24:55.417Z,19.33
2018-03-11T07:27:26.383Z,21.93
2018-03-11T07:29:56.317Z,20.47
2018-03-11T07:32:25.602Z,16.70
2018-03-11T07:34:55.400Z,15.60
2018-03-11T07:37:26.065Z,15.17
2018-03-11T07:39:56.072Z,15.03
2018-03-11T07:42:25.405Z,13.30
2018-03-11T07:44:55.363Z,10.70
2018-03-11T07:47:24.507Z,10.53
2018-03-11T07:49:54.260Z,11.20
2018-03-11T07:52:24.075Z,9.53
2018-03-11T07:54:53.658Z,9.37
2018-03-11T07:57:22.643Z,10.40
2018-03-11T07:59:52.784Z,9.03
2018-03-11T08:02:22.495Z,8.93
2018-03-11T08:04:54.185Z,9.80
2018-03-11T08:07:23.403Z,9.83
2018-03-11T08:09:52.849Z,10.10
2018-03-11T08:12:22.424Z,8.53
2018-03-11T08:14:58.793Z,8.83
2018-03-11T08:17:29.318Z,8.57
2018-03-11T08:19:58.697Z,8.47
2018-03-11T08:22:28.450Z,10.80
2018-03-11T08:24:57.613Z,11.37
2018-03-11T08:27:27.663Z,9.53
2018-03-11T08:29:56.952Z,10.23
2018-03-11T08:32:26.440Z,9.83
2018-03-11T08:34:56.232Z,10.33
2018-03-11T08:37:25.372Z,9.00
2018-03-11T08:39:56.895Z,9.03
2018-03-11T08:42:26.675Z,9.90
2018-03-11T08:44:56.653Z,8.47
2018-03-11T08:47:26.247Z,7.33
2018-03-11T08:49:56.225Z,7.60
2018-03-11T08:52:26.022Z,7.80
2018-03-11T08:54:55.372Z,7.90
2018-03-11T08:57:25.235Z,7.50
2018-03-11T08:59:54.291Z,7.10
2018-03-11T09:02:23.271Z,8.90
2018-03-11T09:04:52.463Z,9.60
2018-03-11T09:07:22.203Z,9.53
2018-03-11T09:09:50.948Z,13.87
2018-03-11T09:12:20.806Z,9.47
2018-03-11T09:14:50.437Z,8.57
2018-03-11T09:17:20.405Z,10.50
2018-03-11T09:19:50.105Z,7.50
2018-03-11T09:22:19.296Z,8.17
2018-03-11T09:24:48.877Z,7.83
2018-03-11T09:27:19.765Z,8.37
2018-03-11T09:29:48.860Z,6.27
2018-03-11T09:32:18.038Z,6.10
2018-03-11T09:34:47.152Z,4.70
2018-03-11T09:37:16.921Z,3.30
2018-03-11T09:39:46.014Z,2.10
2018-03-11T09:42:15.113Z,3.30
2018-03-11T09:44:45.048Z,3.73
2018-03-11T09:47:13.950Z,5.13
2018-03-11T09:49:42.923Z,2.10
2018-03-11T09:52:12.094Z,1.53
2018-03-11T09:54:41.604Z,9.37
2018-03-11T09:57:10.609Z,3.17
2018-03-11T09:59:40.296Z,2.63
2018-03-11T10:02:09.473Z,2.70
2018-03-11T10:04:39.537Z,5.07
2018-03-11T10:07:09.476Z,2.40
2018-03-11T10:09:39.226Z,1.73
2018-03-11T10:12:08.448Z,2.13
2018-03-11T10:14:38.484Z,3.10
2018-03-11T10:17:07.598Z,3.07
2018-03-11T10:19:36.866Z,1.40
2018-03-11T10:22:08.162Z,2.40
2018-03-11T10:24:37.317Z,2.80
2018-03-11T10:27:06.970Z,2.53
2018-03-11T10:29:35.754Z,2.07
2018-03-11T10:32:04.590Z,2.13
2018-03-11T10:34:34.362Z,1.63
2018-03-11T10:37:03.817Z,1.40
2018-03-11T10:39:32.598Z,1.87
2018-03-11T10:42:02.408Z,2.00
2018-03-11T10:44:32.638Z,1.53
2018-03-11T10:47:01.539Z,2.83
2018-03-11T10:49:30.529Z,1.30
2018-03-11T10:51:59.512Z,1.73
2018-03-11T10:54:29.271Z,1.57
2018-03-11T10:56:58.091Z,1.77
2018-03-11T10:59:27.827Z,4.20
2018-03-11T11:02:01.280Z,3.63
2018-03-11T11:04:33.839Z,3.03
2018-03-11T11:07:02.704Z,3.13
2018-03-11T11:09:31.840Z,2.33
2018-03-11T11:12:00.775Z,2.13
2018-03-11T11:14:31.899Z,1.53
2018-03-11T11:17:01.484Z,1.67
2018-03-11T11:19:31.724Z,1.87
2018-03-11T11:22:01.358Z,1.90
2018-03-11T11:24:30.541Z,2.13
2018-03-11T11:27:00.373Z,2.67
2018-03-11T11:29:29.487Z,2.10
2018-03-11T11:31:58.506Z,4.13
2018-03-11T11:34:27.597Z,4.47
2018-03-11T11:36:56.380Z,3.77
2018-03-11T11:39:26.236Z,6.23
2018-03-11T11:41:55.837Z,3.57
2018-03-11T11:44:25.484Z,3.77
2018-03-11T11:46:54.253Z,4.50
2018-03-11T11:49:23.959Z,5.23
2018-03-11T11:51:53.331Z,6.13
2018-03-11T11:54:23.181Z,4.30
2018-03-11T11:56:52.051Z,4.33
2018-03-11T11:59:21.649Z,6.30
2018-03-11T12:01:51.224Z,4.77
2018-03-11T12:04:20.004Z,7.13
2018-03-11T12:06:49.142Z,5.20
2018-03-11T12:09:18.679Z,6.20
2018-03-11T12:11:47.531Z,7.30
2018-03-11T12:14:17.380Z,7.00
2018-03-11T12:16:46.290Z,6.13
2018-03-11T12:19:15.352Z,6.23
2018-03-11T12:21:44.655Z,6.60
2018-03-11T12:24:13.666Z,6.53
2018-03-11T12:26:42.585Z,6.40
2018-03-11T12:29:11.585Z,7.17
2018-03-11T12:31:40.729Z,7.00
2018-03-11T12:34:10.175Z,6.67
2018-03-11T12:36:39.301Z,8.10
2018-03-11T12:39:09.468Z,7.40
2018-03-11T12:41:39.078Z,7.23
2018-03-11T12:44:08.456Z,7.53
2018-03-11T12:46:37.761Z,6.63
2018-03-11T12:49:07.524Z,8.30
2018-03-11T12:51:36.302Z,7.23
2018-03-11T12:54:05.243Z,8.00
2018-03-11T12:56:34.160Z,6.77
2018-03-11T12:59:02.929Z,7.07
2018-03-11T13:01:31.828Z,6.40
2018-03-11T13:04:00.503Z,6.53
2018-03-11T13:06:29.435Z,7.00
2018-03-11T13:08:58.250Z,7.03
2018-03-11T13:11:27.659Z,7.73
2018-03-11T13:13:57.329Z,6.30
2018-03-11T13:16:26.976Z,7.93
2018-03-11T13:18:56.474Z,6.83
2018-03-11T13:21:25.990Z,6.27
2018-03-11T13:23:54.589Z,7.57
2018-03-11T13:26:23.274Z,8.17
2018-03-11T13:28:52.438Z,6.20
2018-03-11T13:31:21.959Z,6.60
2018-03-11T13:34:16.198Z,6.00
2018-03-11T13:36:45.844Z,6.73
2018-03-11T13:39:26.439Z,5.50
2018-03-11T13:41:55.277Z,5.37
2018-03-11T13:44:24.347Z,6.07
2018-03-11T13:47:03.005Z,4.60
2018-03-11T13:49:32.612Z,3.97
2018-03-11T13:52:12.076Z,3.73
2018-03-11T13:54:40.851Z,5.97
2018-03-11T13:57:19.436Z,4.70
2018-03-11T13:59:50.502Z,5.37
2018-03-11T14:02:20.191Z,4.13
2018-03-11T14:04:49.400Z,3.83
2018-03-11T14:07:19.186Z,4.40
2018-03-11T14:09:48.411Z,2.20
2018-03-11T14:12:17.979Z,2.00
2018-03-11T14:14:48.205Z,2.30
2018-03-11T14:17:18.400Z,2.60
2018-03-11T14:19:48.403Z,2.97
2018-03-11T14:22:17.989Z,2.43
2018-03-11T14:24:47.482Z,2.77
2018-03-11T14:27:17.173Z,4.17
2018-03-11T14:29:46.154Z,3.83
2018-03-11T14:32:15.571Z,3.40
2018-03-11T14:34:45.504Z,2.83
2018-03-11T14:37:15.110Z,2.43
2018-03-11T14:39:44.900Z,3.80
2018-03-11T14:42:13.822Z,3.90
2018-03-11T14:44:42.699Z,1.93
2018-03-11T14:47:12.345Z,2.40
2018-03-11T14:49:41.191Z,1.70
2018-03-11T14:52:10.816Z,2.20
2018-03-11T14:54:42.010Z,1.80
2018-03-11T14:57:11.087Z,2.73
2018-03-11T14:59:40.082Z,2.63
2018-03-11T15:02:09.108Z,2.77
2018-03-11T15:04:38.117Z,2.97
2018-03-11T15:07:07.698Z,2.17
2018-03-11T15:09:36.533Z,1.93
2018-03-11T15:12:05.549Z,4.10
2018-03-11T15:14:34.574Z,1.67
2018-03-11T15:17:03.593Z,4.33
2018-03-11T15:19:33.435Z,4.77
2018-03-11T15:22:02.665Z,2.70
2018-03-11T15:24:31.613Z,3.60
2018-03-11T15:27:00.500Z,2.77
2018-03-11T15:29:30.112Z,3.20
2018-03-11T15:31:59.353Z,2.53
2018-03-11T15:34:28.049Z,4.63
2018-03-11T15:36:56.911Z,2.87
2018-03-11T15:39:25.865Z,2.40
2018-03-11T15:41:55.471Z,2.57
2018-03-11T15:44:25.168Z,3.40
2018-03-11T15:46:54.898Z,2.90
2018-03-11T15:49:23.998Z,2.77
2018-03-11T15:51:53.017Z,4.03
2018-03-11T15:54:21.972Z,4.80
2018-03-11T15:56:50.879Z,2.53
2018-03-11T15:59:19.844Z,4.00
2018-03-11T16:01:49.175Z,2.70
2018-03-11T16:04:18.058Z,4.33
2018-03-11T16:06:46.928Z,4.47
2018-03-11T16:09:16.944Z,3.97
2018-03-11T16:11:46.574Z,3.60
2018-03-11T16:14:15.457Z,2.80
2018-03-11T16:16:45.230Z,4.07
2018-03-11T16:19:14.354Z,4.00
2018-03-11T16:21:45.160Z,6.50
2018-03-11T16:24:14.316Z,4.07
2018-03-11T16:26:43.239Z,20.83
2018-03-11T16:29:11.972Z,9.33
2018-03-11T16:31:40.775Z,5.97
2018-03-11T16:34:09.973Z,5.57
2018-03-11T16:36:39.047Z,10.10
2018-03-11T16:39:08.837Z,8.00
2018-03-11T16:41:38.350Z,7.57
2018-03-11T16:44:07.981Z,6.07
2018-03-11T16:46:36.663Z,4.40
2018-03-11T16:49:05.738Z,5.37
2018-03-11T16:51:35.277Z,5.70
2018-03-11T16:54:04.139Z,9.40
2018-03-11T16:56:33.078Z,10.27
2018-03-11T16:59:02.004Z,8.47
2018-03-11T17:01:35.923Z,7.40
2018-03-11T17:04:05.463Z,14.60
2018-03-11T17:06:35.163Z,8.83
2018-03-11T17:09:04.601Z,6.10
2018-03-11T17:11:33.866Z,6.03
2018-03-11T17:14:02.745Z,5.23
2018-03-11T17:16:32.702Z,7.60
2018-03-11T17:19:13.436Z,5.67
2018-03-11T17:21:43.411Z,8.27
2018-03-11T17:24:13.754Z,4.47
2018-03-11T17:26:42.932Z,4.57
2018-03-11T17:29:12.686Z,6.13
2018-03-11T17:31:41.582Z,3.87
2018-03-11T17:34:11.461Z,9.87
2018-03-11T17:36:41.117Z,7.90
2018-03-11T17:39:10.380Z,12.77
2018-03-11T17:41:39.738Z,8.60
2018-03-11T17:44:09.117Z,9.87
2018-03-11T17:46:39.478Z,12.67
2018-03-11T17:49:08.461Z,11.53
2018-03-11T17:51:37.551Z,10.10
2018-03-11T17:54:06.432Z,11.03
2018-03-11T17:56:35.336Z,9.83
2018-03-11T17:59:05.098Z,10.87
2018-03-11T18:01:34.777Z,8.77
2018-03-11T18:04:04.915Z,14.77
2018-03-11T18:06:33.991Z,31.60
2018-03-11T18:09:04.485Z,8.20
2018-03-11T18:11:34.783Z,17.90
2018-03-11T18:14:04.037Z,9.07
2018-03-11T18:16:33.154Z,8.50
2018-03-11T18:19:02.356Z,8.70
2018-03-11T18:21:31.493Z,11.40
2018-03-11T18:24:00.447Z,10.47
2018-03-11T18:26:29.857Z,8.37
2018-03-11T18:28:58.614Z,11.23
2018-03-11T18:31:28.482Z,9.87
2018-03-11T18:33:57.377Z,12.33
2018-03-11T18:36:26.295Z,10.87
2018-03-11T18:38:55.874Z,22.37
2018-03-11T18:41:24.557Z,22.43
2018-03-11T18:43:54.234Z,11.73
2018-03-11T18:46:22.970Z,16.53
2018-03-11T18:48:51.784Z,20.80
2018-03-11T18:51:20.912Z,12.47
2018-03-11T18:53:49.738Z,18.23
2018-03-11T18:56:18.541Z,14.40
2018-03-11T18:58:47.873Z,10.00
2018-03-11T19:01:17.519Z,6.47
2018-03-11T19:03:46.392Z,12.07
2018-03-11T19:06:15.243Z,7.17
2018-03-11T19:08:44.635Z,7.40
2018-03-11T19:11:14.398Z,8.40
2018-03-11T19:13:43.527Z,13.83
2018-03-11T19:16:13.305Z,21.67
2018-03-11T19:18:44.933Z,10.70
2018-03-11T19:21:13.963Z,8.03
2018-03-11T19:23:42.617Z,8.43
2018-03-11T19:26:11.411Z,10.20
2018-03-11T19:28:41.464Z,12.30
2018-03-11T19:31:11.515Z,10.97
2018-03-11T19:33:41.079Z,20.77
2018-03-11T19:36:09.899Z,11.23
2018-03-11T19:38:39.658Z,12.90
2018-03-11T19:41:09.789Z,12.70
2018-03-11T19:43:39.722Z,17.80
2018-03-11T19:46:09.374Z,10.37
2018-03-11T19:48:39.021Z,30.17
2018-03-11T19:51:07.963Z,13.80
2018-03-11T19:53:37.586Z,15.00
2018-03-11T19:56:07.087Z,13.73
2018-03-11T19:58:35.978Z,13.20
2018-03-11T20:01:04.939Z,21.73
2018-03-11T20:03:34.632Z,11.97
2018-03-11T20:06:04.229Z,11.03
2018-03-11T20:08:33.109Z,8.90
2018-03-11T20:11:01.963Z,11.37
2018-03-11T20:13:32.201Z,11.17
2018-03-11T20:16:01.100Z,16.10
2018-03-11T20:18:30.219Z,13.90
2018-03-11T20:20:59.200Z,17.87
2018-03-11T20:23:28.110Z,14.33
2018-03-11T20:25:57.054Z,10.37
2018-03-11T20:28:27.932Z,13.13
2018-03-11T20:30:58.950Z,12.43
2018-03-11T20:33:28.138Z,13.83
2018-03-11T20:35:56.838Z,13.90
2018-03-11T20:38:25.580Z,10.03
2018-03-11T20:40:55.692Z,10.07
2018-03-11T20:43:26.032Z,11.17
2018-03-11T20:45:55.027Z,9.97
2018-03-11T20:48:23.972Z,10.93
2018-03-11T20:50:53.936Z,12.77
2018-03-11T20:53:23.094Z,15.53
2018-03-11T20:55:52.845Z,12.30
2018-03-11T20:58:22.390Z,10.07
2018-03-11T21:00:51.599Z,10.93
2018-03-11T21:03:20.627Z,11.77
2018-03-11T21:05:50.557Z,12.17
2018-03-11T21:08:19.450Z,10.73
2018-03-11T21:10:49.664Z,13.77
2018-03-11T21:13:18.497Z,11.33
2018-03-11T21:15:47.627Z,13.90
2018-03-11T21:18:17.226Z,14.07
2018-03-11T21:20:47.004Z,13.90
2018-03-11T21:23:16.737Z,13.83
2018-03-11T21:25:45.656Z,13.90
2018-03-11T21:28:16.772Z,19.80
2018-03-11T21:30:46.564Z,23.17
2018-03-11T21:33:15.473Z,18.57
2018-03-11T21:35:45.024Z,22.93
2018-03-11T21:38:13.945Z,16.00
2018-03-11T21:40:43.065Z,14.10
2018-03-11T21:43:12.975Z,15.03
2018-03-11T21:45:42.020Z,12.30
2018-03-11T21:48:10.967Z,14.50
2018-03-11T21:50:40.450Z,13.37
2018-03-11T21:53:09.790Z,14.03
2018-03-11T21:55:39.439Z,14.77
2018-03-11T21:58:08.513Z,18.70
2018-03-11T22:00:37.974Z,14.10
2018-03-11T22:03:07.309Z,12.57
2018-03-11T22:05:36.293Z,12.83
2018-03-11T22:08:05.635Z,11.93
2018-03-11T22:10:34.545Z,9.20
2018-03-11T22:13:03.568Z,9.30
2018-03-11T22:15:33.510Z,12.43
2018-03-11T22:18:02.606Z,8.30
2018-03-11T22:20:33.050Z,11.97
2018-03-11T22:23:02.799Z,11.40
2018-03-11T22:25:32.504Z,10.30
2018-03-11T22:28:01.629Z,16.87
2018-03-11T22:30:31.404Z,13.73
2018-03-11T22:33:01.209Z,11.13
2018-03-11T22:35:30.411Z,11.50
2018-03-11T22:38:00.466Z,13.83
2018-03-11T22:40:30.021Z,10.57
2018-03-11T22:42:59.723Z,12.73
2018-03-11T22:45:28.793Z,13.67
2018-03-11T22:48:00.493Z,13.93
2018-03-11T22:50:30.186Z,12.97
2018-03-11T22:53:01.245Z,14.07
2018-03-11T22:55:30.370Z,14.43
2018-03-11T22:57:59.914Z,13.83
2018-03-11T23:00:28.952Z,11.83
2018-03-11T23:02:59.189Z,12.40
2018-03-11T23:05:31.690Z,16.53
2018-03-11T23:08:00.940Z,10.77
2018-03-11T23:10:30.297Z,12.30
2018-03-11T23:13:00.052Z,10.87
2018-03-11T23:15:29.320Z,16.87
2018-03-11T23:17:59.298Z,11.97
2018-03-11T23:20:28.783Z,13.67
2018-03-11T23:22:59.755Z,13.43
2018-03-11T23:25:29.118Z,10.93
2018-03-11T23:27:59.375Z,11.03
2018-03-11T23:30:29.742Z,10.17
2018-03-11T23:32:59.888Z,12.77
2018-03-11T23:35:29.877Z,12.23
2018-03-11T23:37:59.847Z,12.17
2018-03-11T23:40:29.613Z,13.47
2018-03-11T23:42:59.059Z,12.90
2018-03-11T23:45:29.117Z,11.13
2018-03-11T23:47:59.403Z,13.47
2018-03-11T23:50:29.396Z,11.83
2018-03-11T23:52:59.109Z,12.73
2018-03-11T23:55:28.833Z,10.97
2018-03-11T23:57:57.936Z,11.83
